Time;durP1;ratioP1;P1;durP2;ratioP2;P2;SDS_P1;SDS_P2;PMS_P1;PMS_P2;Temp;Humidity;BMP_temperature;BMP_pressure;BME280_temperature;BME280_humidity;BME280_pressure;Samples;Min_cycle;Max_cycle;Signal;HPM_P1;HPM_P2
2022/03/22 00:01:57;;;;;;;30.90;16.83;;;;;;;;;;6183321;23;20043;-53
2022/03/22 00:04:22;;;;;;;30.75;15.27;;;;;;;;;;6183537;23;20016;-54
2022/03/22 00:06:48;;;;;;;37.20;17.00;;;;;;;;;;6184320;23;20020;-50
2022/03/22 00:09:13;;;;;;;37.90;17.60;;;;;;;;;;6184876;23;20036;-51
2022/03/22 00:11:38;;;;;;;30.77;17.17;;;;;;;;;;6184843;23;20035;-52
2022/03/22 00:14:06;;;;;;;36.42;18.55;;;;;;;;;;6183551;23;20013;-50
2022/03/22 00:16:31;;;;;;;35.42;17.13;;;;;;;;;;6183181;23;20016;-52
2022/03/22 00:18:56;;;;;;;34.22;18.15;;;;;;;;;;6184534;23;20385;-48
2022/03/22 00:21:22;;;;;;;32.47;17.58;;;;;;;;;;6184152;23;20040;-52
2022/03/22 00:23:47;;;;;;;38.17;18.17;;;;;;;;;;6183779;23;20012;-48
2022/03/22 00:26:14;;;;;;;32.17;16.73;;;;;;;;;;6184449;23;20021;-50
2022/03/22 00:28:39;;;;;;;40.60;19.38;;;;;;;;;;6183337;23;20021;-49
2022/03/22 00:31:05;;;;;;;32.92;16.15;;;;;;;;;;6184781;23;20009;-48
2022/03/22 00:33:30;;;;;;;40.58;19.27;;;;;;;;;;6183353;23;20079;-52
2022/03/22 00:35:56;;;;;;;33.78;16.80;;;;;;;;;;6184642;23;20077;-50
2022/03/22 00:38:22;;;;;;;33.58;17.77;;;;;;;;;;6183956;23;20017;-49
2022/03/22 00:40:48;;;;;;;33.20;17.15;;;;;;;;;;6184581;23;20013;-52
2022/03/22 00:43:13;;;;;;;35.88;18.15;;;;;;;;;;6182203;23;20021;-51
2022/03/22 00:45:39;;;;;;;32.65;17.45;;;;;;;;;;6183310;23;20016;-52
2022/03/22 00:48:08;;;;;;;35.42;19.10;;;;;;;;;;6184146;23;20035;-51
2022/03/22 00:50:37;;;;;;;34.50;17.47;;;;;;;;;;6183198;23;20035;-49
2022/03/22 00:53:04;;;;;;;36.80;18.95;;;;;;;;;;6185980;23;20019;-50
2022/03/22 00:55:29;;;;;;;32.00;17.00;;;;;;;;;;6182625;23;20028;-52
2022/03/22 00:57:55;;;;;;;35.80;18.15;;;;;;;;;;6184740;23;20056;-52
2022/03/22 01:00:23;;;;;;;35.63;18.52;;;;;;;;;;6182848;23;20016;-49
2022/03/22 01:02:51;;;;;;;36.25;18.80;;;;;;;;;;6183698;23;20001;-50
2022/03/22 01:05:19;;;;;;;42.88;19.52;;;;;;;;;;6182092;23;20045;-53
2022/03/22 01:07:45;;;;;;;29.45;17.23;;;;;;;;;;6184424;23;20009;-49
2022/03/22 01:10:11;;;;;;;39.97;20.48;;;;;;;;;;6183685;23;20048;-53
2022/03/22 01:12:37;;;;;;;37.00;18.40;;;;;;;;;;6184624;23;20013;-51
2022/03/22 01:15:03;;;;;;;33.80;18.42;;;;;;;;;;6182392;23;20016;-49
2022/03/22 01:17:31;;;;;;;31.25;17.67;;;;;;;;;;6183706;23;20013;-53
2022/03/22 01:19:57;;;;;;;35.17;18.38;;;;;;;;;;6183583;23;20012;-47
2022/03/22 01:22:22;;;;;;;35.08;17.55;;;;;;;;;;6183501;23;20028;-52
2022/03/22 01:24:48;;;;;;;33.97;18.63;;;;;;;;;;6180776;23;20013;-51
2022/03/22 01:27:13;;;;;;;37.60;18.95;;;;;;;;;;6184496;23;20017;-50
2022/03/22 01:29:38;;;;;;;38.67;18.85;;;;;;;;;;6183194;23;20032;-48
2022/03/22 01:32:05;;;;;;;34.42;17.88;;;;;;;;;;6186703;23;20005;-52
2022/03/22 01:34:30;;;;;;;39.40;18.35;;;;;;;;;;6182119;23;20037;-49
2022/03/22 01:36:55;;;;;;;35.85;18.05;;;;;;;;;;6185513;23;20013;-53
2022/03/22 01:39:21;;;;;;;38.45;18.25;;;;;;;;;;6183173;23;20097;-53
2022/03/22 01:41:46;;;;;;;40.80;18.75;;;;;;;;;;6160740;23;20028;-54
2022/03/22 01:44:11;;;;;;;36.67;18.60;;;;;;;;;;6183901;23;20029;-52
2022/03/22 01:46:37;;;;;;;37.05;19.42;;;;;;;;;;6186140;23;20009;-49
2022/03/22 01:49:02;;;;;;;31.10;17.00;;;;;;;;;;6185307;23;20047;-49
2022/03/22 01:51:31;;;;;;;40.35;17.48;;;;;;;;;;6185916;23;20047;-52
2022/03/22 01:53:57;;;;;;;41.45;19.67;;;;;;;;;;6158760;23;20012;-51
2022/03/22 01:56:22;;;;;;;36.53;18.13;;;;;;;;;;6186404;23;20021;-52
2022/03/22 01:58:47;;;;;;;38.85;18.35;;;;;;;;;;6183905;23;20025;-51
2022/03/22 02:06:44;;;;;;;38.25;20.50;;;;;;;;;;6183528;23;20020;-54
2022/03/22 02:09:10;;;;;;;37.92;19.55;;;;;;;;;;6184964;23;20025;-51
2022/03/22 02:11:35;;;;;;;44.70;21.77;;;;;;;;;;6185149;23;20013;-50
2022/03/22 02:14:00;;;;;;;42.08;22.52;;;;;;;;;;6185880;23;20005;-50
2022/03/22 02:16:26;;;;;;;47.88;22.85;;;;;;;;;;6184658;23;20024;-51
2022/03/22 02:18:52;;;;;;;46.30;23.92;;;;;;;;;;6185239;23;20005;-54
2022/03/22 02:21:18;;;;;;;50.40;24.00;;;;;;;;;;6185577;23;20024;-51
2022/03/22 02:23:47;;;;;;;48.03;23.13;;;;;;;;;;6184030;23;20013;-52
2022/03/22 02:26:12;;;;;;;46.08;23.58;;;;;;;;;;6185683;23;20016;-53
2022/03/22 02:28:37;;;;;;;47.88;24.98;;;;;;;;;;6184707;23;20017;-50
2022/03/22 02:31:03;;;;;;;42.10;22.77;;;;;;;;;;6186567;23;20021;-51
2022/03/22 02:33:28;;;;;;;41.20;20.42;;;;;;;;;;6184222;23;20009;-52
2022/03/22 02:35:53;;;;;;;34.58;18.02;;;;;;;;;;6185612;23;20013;-50
2022/03/22 02:38:18;;;;;;;31.70;16.20;;;;;;;;;;6184988;23;20017;-53
2022/03/22 02:40:45;;;;;;;33.03;16.75;;;;;;;;;;6183998;23;20930;-51
2022/03/22 02:43:10;;;;;;;37.80;18.00;;;;;;;;;;6184616;23;20009;-48
2022/03/22 02:45:36;;;;;;;31.75;16.45;;;;;;;;;;6158347;23;20017;-52
2022/03/22 02:48:01;;;;;;;25.30;15.05;;;;;;;;;;6158906;23;20854;-49
2022/03/22 02:50:28;;;;;;;32.42;17.00;;;;;;;;;;6177643;23;20044;-52
2022/03/22 02:52:53;;;;;;;34.85;18.17;;;;;;;;;;6184912;23;20342;-49
2022/03/22 02:55:21;;;;;;;35.45;17.70;;;;;;;;;;6183713;23;20009;-48
2022/03/22 02:57:46;;;;;;;35.65;18.35;;;;;;;;;;6185099;23;20028;-50
2022/03/22 03:00:12;;;;;;;33.83;19.00;;;;;;;;;;6185563;23;20009;-49
2022/03/22 03:02:42;;;;;;;34.88;18.05;;;;;;;;;;6183897;23;20017;-48
2022/03/22 03:05:08;;;;;;;37.33;17.40;;;;;;;;;;6184784;23;20017;-50
2022/03/22 03:07:34;;;;;;;31.67;17.80;;;;;;;;;;6185928;23;20016;-50
2022/03/22 03:09:59;;;;;;;32.42;18.63;;;;;;;;;;6186068;23;20025;-52
2022/03/22 03:12:24;;;;;;;33.92;18.90;;;;;;;;;;6185559;23;20065;-51
2022/03/22 03:14:50;;;;;;;38.25;20.30;;;;;;;;;;6185590;23;20020;-54
2022/03/22 03:17:15;;;;;;;38.42;19.73;;;;;;;;;;6185010;23;20005;-52
2022/03/22 03:19:41;;;;;;;37.72;20.80;;;;;;;;;;6185907;23;20057;-49
2022/03/22 03:22:07;;;;;;;41.85;20.35;;;;;;;;;;6184790;23;20024;-51
2022/03/22 03:24:32;;;;;;;35.60;18.98;;;;;;;;;;6182180;23;20017;-58
2022/03/22 03:26:58;;;;;;;40.10;20.00;;;;;;;;;;6185461;23;20009;-49
2022/03/22 03:29:23;;;;;;;45.33;21.05;;;;;;;;;;6183323;23;20994;-50
2022/03/22 03:31:49;;;;;;;47.25;21.23;;;;;;;;;;6185049;23;20009;-50
2022/03/22 03:34:14;;;;;;;37.65;19.38;;;;;;;;;;6182850;23;20021;-51
2022/03/22 03:36:39;;;;;;;37.50;20.30;;;;;;;;;;6186194;23;20013;-49
2022/03/22 03:39:05;;;;;;;40.08;21.67;;;;;;;;;;6156215;23;20521;-50
2022/03/22 03:47:05;;;;;;;48.63;27.58;;;;;;;;;;6183822;23;20036;-53
2022/03/22 03:49:37;;;;;;;59.78;30.35;;;;;;;;;;6182479;23;20033;-51
2022/03/22 03:52:03;;;;;;;66.30;31.25;;;;;;;;;;6183896;23;20012;-50
2022/03/22 03:54:28;;;;;;;50.28;26.92;;;;;;;;;;6185091;23;20013;-49
2022/03/22 03:56:54;;;;;;;58.30;29.13;;;;;;;;;;6182676;23;20013;-52
2022/03/22 03:59:20;;;;;;;58.10;28.35;;;;;;;;;;6184140;23;20386;-53
2022/03/22 04:01:46;;;;;;;61.90;30.17;;;;;;;;;;6183841;23;20392;-53
2022/03/22 04:04:11;;;;;;;61.58;30.88;;;;;;;;;;6183906;23;20009;-48
2022/03/22 04:06:36;;;;;;;63.65;30.20;;;;;;;;;;6182555;23;20013;-51
2022/03/22 04:09:01;;;;;;;62.05;31.52;;;;;;;;;;6183269;23;20017;-50
2022/03/22 04:11:27;;;;;;;63.47;31.80;;;;;;;;;;6183916;23;20084;-51
2022/03/22 04:13:52;;;;;;;70.80;34.03;;;;;;;;;;6184201;23;20495;-49
2022/03/22 04:16:17;;;;;;;56.97;28.25;;;;;;;;;;6183649;23;20023;-51
2022/03/22 04:18:43;;;;;;;66.85;30.73;;;;;;;;;;6183654;23;20637;-50
2022/03/22 04:21:08;;;;;;;59.95;30.75;;;;;;;;;;6184109;23;20009;-51
2022/03/22 04:23:33;;;;;;;39.72;19.88;;;;;;;;;;6184208;23;20036;-50
2022/03/22 04:25:59;;;;;;;42.85;22.27;;;;;;;;;;6157032;23;20017;-53
2022/03/22 04:33:52;;;;;;;46.22;23.85;;;;;;;;;;6183333;23;20016;-51
2022/03/22 04:36:18;;;;;;;53.33;26.58;;;;;;;;;;6181669;23;20583;-51
2022/03/22 04:38:43;;;;;;;48.22;24.50;;;;;;;;;;6182318;23;20071;-53
2022/03/22 04:41:08;;;;;;;55.22;27.02;;;;;;;;;;6181731;23;20016;-53
2022/03/22 04:43:34;;;;;;;51.60;24.95;;;;;;;;;;6183539;23;20009;-51
2022/03/22 04:45:59;;;;;;;53.17;26.02;;;;;;;;;;6155725;23;20005;-53
2022/03/22 04:48:24;;;;;;;58.72;28.17;;;;;;;;;;6173342;23;20446;-48
2022/03/22 04:56:43;;;;;;;52.08;27.15;;;;;;;;;;6181681;23;20040;-52
2022/03/22 04:59:03;;;;;;;54.53;27.40;;;;;;;;;;6177670;23;20016;-51
2022/03/22 05:01:28;;;;;;;60.65;27.98;;;;;;;;;;6180968;23;20013;-52
2022/03/22 05:03:54;;;;;;;57.67;28.35;;;;;;;;;;6181461;23;20372;-48
2022/03/22 05:06:28;;;;;;;63.45;30.55;;;;;;;;;;6181041;23;20035;-50
2022/03/22 05:08:54;;;;;;;57.17;26.92;;;;;;;;;;6182481;23;20024;-51
2022/03/22 05:11:20;;;;;;;59.30;27.60;;;;;;;;;;6182290;23;20057;-50
2022/03/22 05:13:45;;;;;;;57.38;28.05;;;;;;;;;;6183198;23;20472;-52
2022/03/22 05:16:10;;;;;;;59.10;27.58;;;;;;;;;;6185194;23;20066;-51
2022/03/22 05:18:36;;;;;;;54.20;27.05;;;;;;;;;;6181441;23;20013;-50
2022/03/22 05:21:04;;;;;;;51.00;24.55;;;;;;;;;;6185147;23;20029;-51
2022/03/22 05:23:29;;;;;;;50.28;25.33;;;;;;;;;;6182348;23;20009;-53
2022/03/22 05:25:55;;;;;;;56.92;29.52;;;;;;;;;;6184465;23;20020;-51
2022/03/22 05:28:20;;;;;;;61.88;30.90;;;;;;;;;;6181527;23;20064;-53
2022/03/22 05:30:45;;;;;;;59.33;29.63;;;;;;;;;;6182458;23;20005;-48
2022/03/22 05:33:10;;;;;;;54.97;26.35;;;;;;;;;;6182249;23;20082;-50
2022/03/22 05:35:36;;;;;;;60.20;28.92;;;;;;;;;;6183281;23;20010;-48
2022/03/22 05:38:01;;;;;;;50.92;24.98;;;;;;;;;;6182355;23;20013;-50
2022/03/22 05:40:26;;;;;;;58.63;28.63;;;;;;;;;;6184269;23;20013;-53
2022/03/22 05:42:51;;;;;;;55.63;27.83;;;;;;;;;;6180655;23;20201;-49
2022/03/22 05:45:17;;;;;;;54.47;27.20;;;;;;;;;;6183789;23;20019;-47
2022/03/22 05:47:42;;;;;;;63.13;29.67;;;;;;;;;;6182068;23;20017;-52
2022/03/22 05:50:08;;;;;;;67.65;31.25;;;;;;;;;;6183276;23;20029;-52
2022/03/22 05:52:33;;;;;;;69.57;29.17;;;;;;;;;;6181181;23;20013;-48
2022/03/22 05:54:59;;;;;;;61.78;31.98;;;;;;;;;;6184389;23;20023;-51
2022/03/22 05:57:24;;;;;;;61.97;29.90;;;;;;;;;;6181777;23;20009;-50
2022/03/22 05:59:49;;;;;;;63.97;32.15;;;;;;;;;;6156402;23;20009;-50
2022/03/22 06:02:14;;;;;;;68.80;32.55;;;;;;;;;;6179819;23;20019;-53
2022/03/22 06:04:40;;;;;;;59.85;29.70;;;;;;;;;;6180198;23;20013;-50
2022/03/22 06:07:05;;;;;;;65.30;31.83;;;;;;;;;;6183075;23;20005;-53
2022/03/22 06:09:31;;;;;;;66.93;31.92;;;;;;;;;;6183413;23;20053;-52
2022/03/22 06:11:56;;;;;;;66.28;33.55;;;;;;;;;;6180892;23;20092;-49
2022/03/22 06:14:21;;;;;;;73.10;34.83;;;;;;;;;;6179554;23;20013;-49
2022/03/22 06:16:46;;;;;;;64.43;30.92;;;;;;;;;;6181056;23;20367;-52
2022/03/22 06:19:12;;;;;;;65.45;30.52;;;;;;;;;;6183838;23;20013;-51
2022/03/22 06:21:37;;;;;;;71.60;32.60;;;;;;;;;;6181349;23;20016;-51
2022/03/22 06:24:02;;;;;;;71.32;34.05;;;;;;;;;;6178812;23;20011;-52
2022/03/22 06:26:27;;;;;;;76.32;37.03;;;;;;;;;;6178181;23;20119;-53
2022/03/22 06:28:53;;;;;;;92.03;43.95;;;;;;;;;;6180330;23;20021;-50
2022/03/22 06:31:18;;;;;;;101.07;45.00;;;;;;;;;;6179851;23;20349;-50
2022/03/22 06:33:43;;;;;;;93.18;45.35;;;;;;;;;;6178810;23;20064;-49
2022/03/22 06:36:09;;;;;;;93.60;42.53;;;;;;;;;;6180361;23;20009;-49
2022/03/22 06:38:37;;;;;;;89.25;40.28;;;;;;;;;;6175936;23;20009;-51
2022/03/22 06:41:02;;;;;;;96.15;41.83;;;;;;;;;;6175979;23;20013;-51
2022/03/22 06:43:28;;;;;;;84.45;43.58;;;;;;;;;;6178762;23;20472;-49
2022/03/22 06:45:53;;;;;;;98.00;42.28;;;;;;;;;;6179345;23;20057;-50
2022/03/22 06:48:19;;;;;;;102.70;41.38;;;;;;;;;;6179308;23;20041;-53
2022/03/22 06:50:47;;;;;;;97.22;43.47;;;;;;;;;;6177606;23;20032;-51
2022/03/22 06:53:12;;;;;;;90.45;41.47;;;;;;;;;;6179328;23;20009;-52
2022/03/22 06:55:37;;;;;;;94.72;42.72;;;;;;;;;;6178322;23;20016;-50
2022/03/22 06:58:03;;;;;;;82.38;42.05;;;;;;;;;;6178345;23;20068;-50
2022/03/22 07:00:31;;;;;;;84.90;40.28;;;;;;;;;;6178993;23;20013;-50
2022/03/22 07:02:57;;;;;;;90.80;42.47;;;;;;;;;;6178623;23;20039;-52
2022/03/22 07:05:22;;;;;;;85.80;41.10;;;;;;;;;;6179079;23;20021;-53
2022/03/22 07:07:48;;;;;;;90.78;39.65;;;;;;;;;;6181196;23;20013;-54
2022/03/22 07:10:14;;;;;;;88.07;43.72;;;;;;;;;;6182085;23;20059;-50
2022/03/22 07:12:53;;;;;;;88.07;42.45;;;;;;;;;;6183018;23;20005;-53
2022/03/22 07:15:29;;;;;;;88.35;44.08;;;;;;;;;;6182440;23;20013;-49
2022/03/22 07:17:56;;;;;;;87.90;41.63;;;;;;;;;;6181554;23;20796;-51
2022/03/22 07:20:22;;;;;;;81.10;38.13;;;;;;;;;;6156693;23;20009;-51
2022/03/22 07:22:47;;;;;;;87.65;41.40;;;;;;;;;;6182409;23;20061;-51
2022/03/22 07:25:13;;;;;;;84.53;40.45;;;;;;;;;;6182122;23;20009;-50
2022/03/22 07:27:38;;;;;;;83.18;40.85;;;;;;;;;;6181597;23;20009;-50
2022/03/22 07:30:04;;;;;;;90.22;43.33;;;;;;;;;;6182778;23;20025;-50
2022/03/22 07:32:29;;;;;;;84.75;40.42;;;;;;;;;;6177808;23;20013;-51
2022/03/22 07:34:54;;;;;;;87.22;41.35;;;;;;;;;;6177966;23;20678;-51
2022/03/22 07:37:19;;;;;;;84.22;43.83;;;;;;;;;;6182015;23;20040;-52
2022/03/22 07:39:45;;;;;;;84.07;40.45;;;;;;;;;;6183467;23;20077;-50
2022/03/22 07:42:10;;;;;;;88.60;41.58;;;;;;;;;;6182861;23;20009;-52
2022/03/22 07:44:36;;;;;;;94.45;40.90;;;;;;;;;;6181021;23;20009;-50
2022/03/22 07:47:01;;;;;;;96.97;40.47;;;;;;;;;;6182896;23;20071;-54
2022/03/22 07:54:55;;;;;;;88.88;41.88;;;;;;;;;;6182763;23;20071;-49
2022/03/22 07:57:21;;;;;;;79.65;38.58;;;;;;;;;;6180876;23;20017;-51
2022/03/22 07:59:46;;;;;;;92.53;40.53;;;;;;;;;;6183502;23;20449;-50
2022/03/22 08:02:11;;;;;;;94.40;41.88;;;;;;;;;;6181963;23;20009;-50
2022/03/22 08:04:36;;;;;;;84.13;41.15;;;;;;;;;;6182188;23;20005;-53
2022/03/22 08:07:02;;;;;;;81.22;39.55;;;;;;;;;;6183099;23;20342;-53
2022/03/22 08:09:27;;;;;;;88.35;42.42;;;;;;;;;;6180141;23;20025;-53
2022/03/22 08:11:53;;;;;;;74.65;37.47;;;;;;;;;;6179768;23;20013;-51
2022/03/22 08:14:20;;;;;;;83.25;40.15;;;;;;;;;;6176037;23;20017;-52
2022/03/22 08:16:45;;;;;;;78.43;38.92;;;;;;;;;;6176860;23;20101;-50
2022/03/22 08:19:17;;;;;;;79.60;38.88;;;;;;;;;;6177770;23;20013;-53
2022/03/22 08:21:43;;;;;;;85.70;39.17;;;;;;;;;;6178222;23;20028;-51
2022/03/22 08:24:08;;;;;;;84.68;39.08;;;;;;;;;;6151794;23;20008;-51
2022/03/22 08:26:35;;;;;;;80.60;39.83;;;;;;;;;;6177143;23;20009;-52
2022/03/22 08:29:00;;;;;;;83.63;40.13;;;;;;;;;;6174113;23;20017;-54
2022/03/22 08:31:25;;;;;;;83.80;40.67;;;;;;;;;;6175641;23;20024;-53
2022/03/22 08:33:53;;;;;;;83.75;41.45;;;;;;;;;;6151076;23;20013;-54
2022/03/22 08:36:20;;;;;;;77.35;39.58;;;;;;;;;;6181381;23;20098;-54
2022/03/22 08:38:45;;;;;;;75.05;37.50;;;;;;;;;;6177305;23;20431;-51
2022/03/22 08:41:10;;;;;;;83.80;40.22;;;;;;;;;;6176962;23;20013;-54
2022/03/22 08:43:35;;;;;;;82.35;38.42;;;;;;;;;;6175905;23;20009;-52
2022/03/22 08:46:01;;;;;;;74.55;35.80;;;;;;;;;;6180595;23;20005;-50
2022/03/22 08:48:26;;;;;;;83.80;39.28;;;;;;;;;;6150582;23;20025;-52
2022/03/22 08:50:52;;;;;;;77.93;38.58;;;;;;;;;;6146510;23;20021;-50
2022/03/22 08:53:19;;;;;;;80.65;38.63;;;;;;;;;;6161756;23;20333;-48
2022/03/22 08:55:45;;;;;;;85.78;39.53;;;;;;;;;;6177218;23;20020;-52
2022/03/22 08:58:10;;;;;;;78.00;37.58;;;;;;;;;;6177347;23;20032;-53
2022/03/22 09:00:36;;;;;;;75.53;36.25;;;;;;;;;;6178946;23;20024;-52
2022/03/22 09:03:02;;;;;;;65.25;32.78;;;;;;;;;;6153882;23;20013;-53
2022/03/22 09:08:12;;;;;;;67.65;33.45;;;;;;;;;;6179318;23;20036;-53
2022/03/22 09:10:37;;;;;;;71.25;34.42;;;;;;;;;;6179385;23;20043;-52
2022/03/22 09:13:06;;;;;;;71.32;34.88;;;;;;;;;;6180272;23;20020;-53
2022/03/22 09:15:36;;;;;;;71.00;30.55;;;;;;;;;;6177731;23;20021;-53
2022/03/22 09:18:01;;;;;;;67.20;33.78;;;;;;;;;;6180141;23;20528;-53
2022/03/22 09:20:31;;;;;;;66.07;32.70;;;;;;;;;;6178577;23;20032;-53
2022/03/22 09:22:56;;;;;;;61.80;32.63;;;;;;;;;;6181076;23;20296;-52
2022/03/22 09:25:22;;;;;;;75.72;34.08;;;;;;;;;;6179518;23;20031;-53
2022/03/22 09:27:47;;;;;;;67.95;32.53;;;;;;;;;;6180092;23;20013;-53
2022/03/22 09:30:13;;;;;;;63.80;33.45;;;;;;;;;;6178615;23;20021;-52
2022/03/22 09:32:38;;;;;;;67.47;35.05;;;;;;;;;;6177056;23;20374;-49
2022/03/22 09:35:10;;;;;;;69.15;34.90;;;;;;;;;;6182210;23;20009;-52
2022/03/22 09:37:36;;;;;;;70.30;33.60;;;;;;;;;;6176674;23;20052;-53
2022/03/22 09:40:02;;;;;;;72.15;33.35;;;;;;;;;;6181059;23;20009;-49
2022/03/22 09:42:27;;;;;;;68.80;33.47;;;;;;;;;;6150790;23;20073;-50
2022/03/22 09:44:53;;;;;;;77.15;37.80;;;;;;;;;;6179255;23;20083;-51
2022/03/22 09:47:18;;;;;;;75.40;32.92;;;;;;;;;;6176211;23;20020;-53
2022/03/22 09:49:44;;;;;;;60.15;30.02;;;;;;;;;;6176759;23;20021;-53
2022/03/22 09:52:10;;;;;;;62.95;30.77;;;;;;;;;;6183299;23;20009;-50
2022/03/22 09:54:35;;;;;;;56.72;29.60;;;;;;;;;;6181498;23;20009;-53
2022/03/22 09:57:04;;;;;;;64.80;33.42;;;;;;;;;;6182009;23;20151;-53
2022/03/22 09:59:30;;;;;;;63.78;31.15;;;;;;;;;;6159742;23;20013;-53
2022/03/22 10:01:59;;;;;;;40.83;22.30;;;;;;;;;;6182633;23;20048;-53
2022/03/22 10:04:35;;;;;;;53.15;27.65;;;;;;;;;;6183965;23;20024;-54
2022/03/22 10:07:03;;;;;;;65.80;31.70;;;;;;;;;;6183713;23;20035;-50
2022/03/22 10:09:40;;;;;;;49.85;27.33;;;;;;;;;;6183290;23;20056;-52
2022/03/22 10:12:08;;;;;;;54.78;22.20;;;;;;;;;;6181503;23;20092;-51
2022/03/22 10:14:39;;;;;;;41.25;20.58;;;;;;;;;;6177418;23;20057;-52
2022/03/22 10:17:08;;;;;;;39.47;20.13;;;;;;;;;;6181669;23;20009;-51
2022/03/22 10:19:33;;;;;;;41.30;22.15;;;;;;;;;;6178468;23;20033;-55
2022/03/22 10:22:04;;;;;;;44.85;20.95;;;;;;;;;;6180731;23;20024;-53
2022/03/22 10:24:29;;;;;;;38.55;20.95;;;;;;;;;;6184619;23;20013;-54
2022/03/22 10:26:55;;;;;;;40.40;21.58;;;;;;;;;;6182756;23;20092;-52
2022/03/22 10:29:20;;;;;;;38.75;20.52;;;;;;;;;;6157012;23;20031;-53
2022/03/22 10:31:45;;;;;;;35.28;18.67;;;;;;;;;;6179543;23;20025;-51
2022/03/22 10:34:12;;;;;;;35.47;18.60;;;;;;;;;;6179131;23;20009;-55
2022/03/22 10:36:38;;;;;;;38.47;21.02;;;;;;;;;;6171465;23;20044;-53
2022/03/22 10:39:08;;;;;;;38.35;20.60;;;;;;;;;;6182147;23;20977;-54
2022/03/22 10:41:37;;;;;;;37.60;20.77;;;;;;;;;;6174938;23;20025;-54
2022/03/22 10:44:03;;;;;;;36.47;20.35;;;;;;;;;;6178741;23;20013;-51
2022/03/22 10:46:29;;;;;;;30.98;17.45;;;;;;;;;;6181022;23;20013;-54
2022/03/22 10:49:08;;;;;;;37.22;20.60;;;;;;;;;;6181322;23;20076;-52
2022/03/22 10:51:53;;;;;;;32.40;16.73;;;;;;;;;;6183541;23;20017;-51
2022/03/22 10:54:19;;;;;;;36.85;19.92;;;;;;;;;;6172190;23;20017;-50
2022/03/22 10:56:49;;;;;;;30.05;16.38;;;;;;;;;;6182846;23;20009;-53
2022/03/22 10:59:16;;;;;;;18.60;11.13;;;;;;;;;;6180531;23;20098;-51
2022/03/22 11:01:43;;;;;;;36.03;18.77;;;;;;;;;;6182347;23;20085;-54
2022/03/22 11:04:08;;;;;;;36.88;19.27;;;;;;;;;;6183905;23;20009;-53
2022/03/22 11:06:34;;;;;;;30.25;18.50;;;;;;;;;;6182930;23;20059;-52
2022/03/22 11:09:00;;;;;;;23.55;15.27;;;;;;;;;;6157683;23;20020;-50
2022/03/22 11:11:26;;;;;;;28.60;17.98;;;;;;;;;;6183201;23;20009;-51
2022/03/22 11:13:51;;;;;;;32.33;17.30;;;;;;;;;;6181331;23;20020;-51
2022/03/22 11:16:18;;;;;;;25.17;14.20;;;;;;;;;;6183681;23;20037;-53
2022/03/22 11:18:44;;;;;;;39.45;19.70;;;;;;;;;;6181469;23;20019;-53
2022/03/22 11:21:15;;;;;;;31.92;17.70;;;;;;;;;;6183867;23;20009;-51
2022/03/22 11:23:42;;;;;;;34.10;16.33;;;;;;;;;;6179709;23;20076;-52
2022/03/22 11:26:17;;;;;;;29.60;17.02;;;;;;;;;;6184500;23;20017;-49
2022/03/22 11:28:44;;;;;;;32.40;17.45;;;;;;;;;;6181344;23;20032;-52
2022/03/22 11:31:09;;;;;;;30.15;18.52;;;;;;;;;;6184550;23;20017;-54
2022/03/22 11:36:21;;;;;;;30.33;17.00;;;;;;;;;;6183490;23;20027;-52
2022/03/22 11:38:46;;;;;;;22.05;12.20;;;;;;;;;;6183827;23;20709;-50
2022/03/22 11:44:14;;;;;;;14.43;8.48;;;;;;;;;;6183657;23;20016;-52
2022/03/22 11:46:40;;;;;;;25.02;14.32;;;;;;;;;;6182143;23;20009;-51
2022/03/22 11:49:13;;;;;;;27.10;12.32;;;;;;;;;;6158341;23;20762;-53
2022/03/22 11:51:52;;;;;;;21.92;13.38;;;;;;;;;;6182891;23;20037;-52
2022/03/22 11:54:19;;;;;;;22.02;12.73;;;;;;;;;;6181909;23;20021;-55
2022/03/22 11:56:49;;;;;;;10.90;7.05;;;;;;;;;;6185401;23;20009;-52
2022/03/22 11:59:15;;;;;;;;;;;;;;;;;;6183356;23;20032;-54
2022/03/22 12:01:40;;;;;;;18.48;10.75;;;;;;;;;;6182044;23;19904;-52
2022/03/22 12:04:14;;;;;;;12.60;8.02;;;;;;;;;;6184546;23;20035;-53
2022/03/22 12:06:39;;;;;;;25.63;10.63;;;;;;;;;;6183103;23;20036;-54
2022/03/22 12:09:06;;;;;;;19.67;10.52;;;;;;;;;;6157931;23;20448;-54
2022/03/22 12:11:32;;;;;;;15.10;9.93;;;;;;;;;;6183134;23;20068;-53
2022/03/22 12:13:57;;;;;;;20.17;9.65;;;;;;;;;;6183405;23;20005;-54
2022/03/22 12:16:26;;;;;;;17.80;9.45;;;;;;;;;;6182689;23;20012;-55
2022/03/22 12:18:51;;;;;;;18.63;10.65;;;;;;;;;;6183446;23;20012;-55
2022/03/22 12:21:17;;;;;;;13.80;9.60;;;;;;;;;;6182436;23;20257;-55
2022/03/22 12:23:44;;;;;;;21.02;11.27;;;;;;;;;;6183570;23;20094;-55
2022/03/22 12:26:10;;;;;;;14.05;8.98;;;;;;;;;;6183257;23;20009;-55
2022/03/22 12:28:44;;;;;;;19.38;10.15;;;;;;;;;;6183969;23;20423;-51
2022/03/22 12:31:13;;;;;;;15.82;10.07;;;;;;;;;;6182718;23;20405;-55
2022/03/22 12:33:38;;;;;;;13.40;8.52;;;;;;;;;;6183465;23;20023;-53
2022/03/22 12:36:03;;;;;;;15.80;10.48;;;;;;;;;;6182397;23;20005;-55
2022/03/22 12:38:29;;;;;;;17.23;10.32;;;;;;;;;;6183693;23;20013;-53
2022/03/22 12:40:54;;;;;;;14.73;9.23;;;;;;;;;;6182022;23;20021;-51
2022/03/22 12:43:20;;;;;;;18.33;10.85;;;;;;;;;;6182535;23;20036;-53
2022/03/22 12:45:46;;;;;;;15.65;10.40;;;;;;;;;;6180068;23;20232;-52
2022/03/22 12:48:14;;;;;;;15.15;10.20;;;;;;;;;;6180593;23;20297;-51
2022/03/22 12:50:39;;;;;;;17.30;11.13;;;;;;;;;;6179704;23;20067;-56
2022/03/22 12:53:06;;;;;;;13.93;9.00;;;;;;;;;;6183220;23;20025;-55
2022/03/22 12:55:31;;;;;;;15.63;10.82;;;;;;;;;;6182748;23;20021;-54
2022/03/22 12:57:58;;;;;;;19.15;11.45;;;;;;;;;;6183456;23;20013;-53
2022/03/22 13:00:28;;;;;;;16.60;9.02;;;;;;;;;;6181310;23;20005;-54
2022/03/22 13:02:55;;;;;;;14.25;10.07;;;;;;;;;;6183714;23;20039;-55
2022/03/22 13:05:26;;;;;;;14.38;9.40;;;;;;;;;;6181309;23;20013;-54
2022/03/22 13:07:51;;;;;;;14.15;9.65;;;;;;;;;;6184066;23;20013;-52
2022/03/22 13:13:01;;;;;;;16.80;9.35;;;;;;;;;;6180887;23;20439;-56
2022/03/22 13:15:26;;;;;;;18.65;11.27;;;;;;;;;;6182242;23;20010;-55
2022/03/22 13:17:52;;;;;;;20.50;10.73;;;;;;;;;;6180517;23;20009;-53
2022/03/22 13:20:24;;;;;;;15.52;9.88;;;;;;;;;;6177399;23;20359;-54
2022/03/22 13:22:53;;;;;;;13.80;8.57;;;;;;;;;;6175879;23;20009;-52
2022/03/22 13:25:23;;;;;;;13.98;8.65;;;;;;;;;;6180070;23;20202;-53
2022/03/22 13:27:57;;;;;;;10.13;7.57;;;;;;;;;;6179901;23;20009;-53
2022/03/22 13:30:23;;;;;;;12.52;8.15;;;;;;;;;;6154645;23;20029;-56
2022/03/22 13:32:48;;;;;;;13.98;7.82;;;;;;;;;;6179794;23;20592;-51
2022/03/22 13:35:14;;;;;;;9.80;7.28;;;;;;;;;;6182271;23;20069;-57
2022/03/22 13:37:50;;;;;;;11.75;7.45;;;;;;;;;;6180348;23;20009;-56
2022/03/22 13:40:16;;;;;;;11.15;6.93;;;;;;;;;;6177119;23;20024;-55
2022/03/22 13:42:56;;;;;;;11.07;7.03;;;;;;;;;;6179293;23;20464;-52
2022/03/22 13:45:22;;;;;;;13.82;7.70;;;;;;;;;;6180005;23;20024;-54
2022/03/22 13:47:51;;;;;;;13.73;7.90;;;;;;;;;;6180561;23;20012;-53
2022/03/22 13:50:18;;;;;;;15.90;7.45;;;;;;;;;;6178965;23;20025;-55
2022/03/22 13:52:46;;;;;;;12.90;8.40;;;;;;;;;;6184596;23;20059;-51
2022/03/22 13:55:15;;;;;;;14.80;8.40;;;;;;;;;;6183384;23;20013;-55
2022/03/22 13:57:41;;;;;;;10.07;6.38;;;;;;;;;;6183610;23;20418;-54
2022/03/22 14:00:07;;;;;;;12.80;7.18;;;;;;;;;;6184304;23;20005;-54
2022/03/22 14:02:33;;;;;;;13.88;7.18;;;;;;;;;;6183404;23;20009;-51
2022/03/22 14:04:58;;;;;;;10.60;7.30;;;;;;;;;;6184092;23;20016;-55
2022/03/22 14:07:23;;;;;;;12.50;7.80;;;;;;;;;;6183260;23;20016;-54
2022/03/22 14:09:49;;;;;;;10.70;7.55;;;;;;;;;;6184243;23;20013;-53
2022/03/22 14:12:15;;;;;;;11.95;8.32;;;;;;;;;;6180593;23;20044;-55
2022/03/22 14:14:41;;;;;;;12.48;7.53;;;;;;;;;;6154640;23;20016;-55
2022/03/22 14:17:06;;;;;;;17.30;8.02;;;;;;;;;;6180927;23;20020;-55
2022/03/22 14:19:32;;;;;;;10.15;6.80;;;;;;;;;;6179781;23;20013;-54
2022/03/22 14:21:57;;;;;;;12.88;7.28;;;;;;;;;;6180403;23;20025;-55
2022/03/22 14:24:23;;;;;;;11.40;6.65;;;;;;;;;;6179751;23;20569;-54
2022/03/22 14:26:48;;;;;;;12.32;8.05;;;;;;;;;;6181738;23;20509;-53
2022/03/22 14:29:13;;;;;;;10.40;6.05;;;;;;;;;;6180752;23;20013;-55
2022/03/22 14:31:39;;;;;;;11.32;7.82;;;;;;;;;;6184439;23;20511;-52
2022/03/22 14:34:04;;;;;;;8.70;7.07;;;;;;;;;;6185595;23;20024;-55
2022/03/22 14:36:30;;;;;;;11.65;6.55;;;;;;;;;;6183817;23;20020;-53
2022/03/22 14:38:55;;;;;;;11.73;7.47;;;;;;;;;;6158501;23;20471;-54
2022/03/22 14:41:26;;;;;;;9.57;6.47;;;;;;;;;;6184766;23;20013;-52
2022/03/22 14:43:53;;;;;;;16.48;8.73;;;;;;;;;;6184457;23;20009;-54
2022/03/22 14:46:19;;;;;;;10.57;6.90;;;;;;;;;;6182040;23;20116;-53
2022/03/22 14:48:49;;;;;;;9.65;6.80;;;;;;;;;;6184249;23;20042;-54
2022/03/22 14:51:14;;;;;;;8.63;5.63;;;;;;;;;;6156232;23;20084;-54
2022/03/22 14:59:07;;;;;;;12.07;7.20;;;;;;;;;;6183209;23;20008;-52